Time;durP1;ratioP1;P1;durP2;ratioP2;P2;SDS_P1;SDS_P2;PMS_P1;PMS_P2;Temp;Humidity;BMP_temperature;BMP_pressure;BME280_temperature;BME280_humidity;BME280_pressure;Samples;Min_cycle;Max_cycle;Signal;HPM_P1;HPM_P2
2022/06/23 00:03:00;;;;;;;26.27;17.75;;;;;;;18.52;100.00;99984.75;20893510;28;20099;-66
2022/06/23 00:13:03;;;;;;;27.08;18.52;;;;;;;18.25;100.00;99965.06;20892414;28;20041;-66
2022/06/23 00:23:13;;;;;;;25.70;17.93;;;;;;;18.09;100.00;99984.44;20892117;28;20064;-67
2022/06/23 00:33:19;;;;;;;24.88;18.15;;;;;;;18.03;100.00;99960.94;20890160;28;20067;-66
2022/06/23 00:43:22;;;;;;;25.67;17.35;;;;;;;17.88;100.00;99961.75;20890390;28;20083;-66
2022/06/23 00:53:36;;;;;;;29.55;17.50;;;;;;;17.70;100.00;99969.69;20890321;28;20128;-66
2022/06/23 01:03:45;;;;;;;27.33;17.27;;;;;;;17.61;100.00;99970.16;20888358;28;20049;-67
2022/06/23 01:14:11;;;;;;;20.33;15.90;;;;;;;17.51;100.00;99970.72;20888683;28;20049;-67
2022/06/23 01:24:36;;;;;;;23.17;16.63;;;;;;;17.54;100.00;100011.13;20888782;28;20358;-67
2022/06/23 01:34:46;;;;;;;24.08;16.88;;;;;;;17.73;100.00;99999.59;20886681;28;20040;-67
2022/06/23 01:44:56;;;;;;;26.60;17.48;;;;;;;17.80;100.00;100014.25;20886750;28;20045;-68
2022/06/23 01:55:13;;;;;;;26.17;16.60;;;;;;;17.55;100.00;100007.53;20887705;28;20045;-67
2022/06/23 02:05:26;;;;;;;21.60;14.05;;;;;;;17.37;100.00;100019.03;20885629;28;20053;-67
2022/06/23 02:15:46;;;;;;;22.27;14.15;;;;;;;17.32;100.00;100018.41;20901081;28;20159;-67
2022/06/23 02:26:46;;;;;;;22.48;14.93;;;;;;;17.15;100.00;100025.41;20901470;28;20052;-67
2022/06/23 02:37:19;;;;;;;21.83;13.68;;;;;;;17.15;100.00;100017.47;20939420;28;20487;-67
2022/06/23 02:47:39;;;;;;;19.95;13.23;;;;;;;17.19;100.00;100019.00;20982798;28;20049;-67
2022/06/23 02:57:49;;;;;;;22.95;13.68;;;;;;;17.11;100.00;100023.84;20982941;28;20048;-67
2022/06/23 03:08:26;;;;;;;20.77;13.18;;;;;;;17.07;100.00;100019.63;20980388;28;20101;-67
2022/06/23 03:18:34;;;;;;;18.17;11.75;;;;;;;16.96;100.00;100029.88;20885911;28;20044;-67
2022/06/23 03:28:48;;;;;;;16.90;11.48;;;;;;;17.03;100.00;100041.84;20896140;28;20048;-67
2022/06/23 03:49:39;;;;;;;22.25;14.43;;;;;;;16.98;100.00;100041.22;20895988;28;20052;-67
2022/06/23 04:00:00;;;;;;;24.08;13.38;;;;;;;17.01;100.00;100067.53;20894298;28;20508;-67
2022/06/23 04:10:07;;;;;;;21.23;13.20;;;;;;;17.01;100.00;100070.19;20944831;28;20049;-66
2022/06/23 04:20:34;;;;;;;20.80;12.32;;;;;;;17.32;100.00;100076.63;20975152;28;20048;-68
2022/06/23 04:30:39;;;;;;;17.65;11.70;;;;;;;17.68;100.00;100080.13;20972925;28;20036;-68
2022/06/23 04:40:40;;;;;;;;;;;;;;;18.02;100.00;100065.19;20894792;28;20051;-67
2022/06/23 04:50:47;;;;;;;19.83;12.30;;;;;;;18.20;100.00;100071.31;20890655;28;19944;-68
2022/06/23 05:00:51;;;;;;;46.05;24.40;;;;;;;18.70;100.00;100068.66;20889369;28;20071;-67
2022/06/23 05:11:13;;;;;;;41.63;23.90;;;;;;;18.90;100.00;100074.66;20889186;28;20059;-67
2022/06/23 05:21:22;;;;;;;45.83;24.75;;;;;;;19.03;100.00;100091.59;20888741;28;20057;-67
2022/06/23 05:31:32;;;;;;;36.65;23.77;;;;;;;19.01;100.00;100088.16;20888045;28;20146;-67
2022/06/23 05:41:38;;;;;;;32.25;23.33;;;;;;;19.06;100.00;100093.22;20891241;28;20499;-67
2022/06/23 05:52:02;;;;;;;39.67;26.13;;;;;;;19.27;100.00;100099.16;20904637;28;20053;-67
2022/06/23 06:02:13;;;;;;;44.58;27.23;;;;;;;19.78;100.00;100105.06;20902486;28;20049;-67
2022/06/23 06:12:21;;;;;;;46.65;28.38;;;;;;;19.99;100.00;100106.47;20902602;28;20517;-66
2022/06/23 06:22:39;;;;;;;39.80;26.25;;;;;;;20.50;100.00;100098.97;20901967;28;20052;-66
2022/06/23 06:32:42;;;;;;;41.05;26.60;;;;;;;20.56;100.00;100101.28;20900663;28;20575;-66
2022/06/23 06:42:47;;;;;;;42.53;27.63;;;;;;;20.25;100.00;100087.16;20899030;28;20048;-66
2022/06/23 06:52:50;;;;;;;43.00;28.58;;;;;;;20.67;100.00;100096.13;20943867;28;20094;-66
2022/06/23 07:02:59;;;;;;;25.20;16.17;;;;;;;20.68;100.00;100092.50;20965840;28;20072;-66
2022/06/23 07:13:07;;;;;;;19.88;12.68;;;;;;;21.23;100.00;100112.13;20963521;28;20497;-66
2022/06/23 07:23:16;;;;;;;20.80;12.38;;;;;;;21.49;100.00;100094.47;20957336;28;20048;-66
2022/06/23 07:33:35;;;;;;;23.37;11.73;;;;;;;21.80;100.00;100097.75;20973118;28;20102;-66
2022/06/23 07:43:39;;;;;;;;;;;;;;;22.40;100.00;100081.22;20910372;28;20734;-66
2022/06/23 07:53:44;;;;;;;24.73;14.27;;;;;;;22.68;100.00;100091.66;20897306;28;20396;-67
2022/06/23 08:03:58;;;;;;;22.02;12.45;;;;;;;23.12;100.00;100082.28;20889354;28;20045;-67
2022/06/23 08:14:14;;;;;;;24.33;13.13;;;;;;;23.29;100.00;100070.38;20895272;28;20095;-66
2022/06/23 08:24:19;;;;;;;14.95;6.70;;;;;;;23.98;98.72;100054.50;20890527;28;20056;-67
2022/06/23 08:34:31;;;;;;;14.02;4.85;;;;;;;24.00;94.06;100050.75;21126808;27;20390;-66
2022/06/23 08:44:54;;;;;;;11.35;4.72;;;;;;;24.29;90.49;100034.22;21125586;28;20382;-65
2022/06/23 08:55:18;;;;;;;15.60;5.90;;;;;;;24.74;93.97;100013.72;21125485;28;20058;-71
2022/06/23 09:05:55;;;;;;;12.00;5.50;;;;;;;24.56;93.33;100017.84;21124106;28;20669;-69
2022/06/23 09:16:11;;;;;;;13.38;6.13;;;;;;;24.68;96.44;100010.69;21123703;28;20044;-67
2022/06/23 09:26:22;;;;;;;15.63;6.72;;;;;;;24.28;95.66;100008.47;21122562;28;20044;-67
2022/06/23 09:36:50;;;;;;;15.10;4.80;;;;;;;25.29;91.19;99992.25;21118203;28;20036;-67
2022/06/23 09:47:06;;;;;;;12.60;4.50;;;;;;;25.63;88.73;99974.19;21064807;28;20048;-68
2022/06/23 09:57:23;;;;;;;12.82;4.53;;;;;;;26.28;84.96;99964.97;21064861;28;20412;-68
2022/06/23 10:07:46;;;;;;;11.77;4.88;;;;;;;25.99;87.13;99958.63;21061547;28;20100;-69
2022/06/23 10:18:02;;;;;;;14.70;4.40;;;;;;;26.67;79.61;99954.38;21060621;28;20044;-68
2022/06/23 10:28:22;;;;;;;11.15;4.05;;;;;;;27.07;82.77;99943.56;21061643;28;20094;-67
2022/06/23 10:38:48;;;;;;;12.10;4.38;;;;;;;26.53;80.24;99933.28;21060263;28;20530;-66
2022/06/23 10:48:55;;;;;;;11.48;4.18;;;;;;;27.04;78.45;99919.63;21057901;28;20048;-67
2022/06/23 10:59:05;;;;;;;13.80;4.10;;;;;;;27.26;75.37;99912.28;21058637;28;20097;-67
2022/06/23 11:09:36;;;;;;;12.27;4.25;;;;;;;27.07;75.83;99897.03;21057668;28;20040;-67
2022/06/23 11:20:02;;;;;;;12.43;4.43;;;;;;;26.79;75.41;99887.97;21052069;28;20048;-66
2022/06/23 11:30:06;;;;;;;11.35;4.03;;;;;;;27.40;71.32;99878.75;21034120;28;20048;-67
2022/06/23 11:40:51;;;;;;;11.35;3.47;;;;;;;27.78;69.13;99858.97;21054898;28;20122;-67
2022/06/23 11:51:14;;;;;;;16.90;3.58;;;;;;;28.10;66.40;99840.56;21055046;28;20139;-71
2022/06/23 12:01:21;;;;;;;10.40;3.72;;;;;;;27.96;66.39;99824.06;21053716;28;20119;-69
2022/06/23 12:11:23;;;;;;;15.52;3.47;;;;;;;28.18;65.78;99818.28;21053483;28;20056;-70
2022/06/23 12:21:52;;;;;;;9.98;3.10;;;;;;;28.55;59.35;99795.78;21053627;28;20048;-69
2022/06/23 12:32:00;;;;;;;11.95;3.70;;;;;;;28.78;55.19;99783.53;21053432;28;20052;-70
2022/06/23 12:42:10;;;;;;;12.65;4.15;;;;;;;28.51;58.14;99772.88;21053477;28;20044;-69
2022/06/23 12:52:25;;;;;;;12.15;3.17;;;;;;;28.84;57.83;99761.38;21052626;28;20396;-70
2022/06/23 13:02:34;;;;;;;10.10;3.10;;;;;;;28.94;55.47;99749.63;21051836;28;20036;-69
2022/06/23 13:12:39;;;;;;;11.25;2.80;;;;;;;28.94;56.12;99717.28;21052680;28;20126;-69
2022/06/23 13:22:54;;;;;;;8.20;2.38;;;;;;;29.59;54.78;99709.56;21066984;28;20040;-70
2022/06/23 13:33:02;;;;;;;15.05;2.85;;;;;;;29.41;51.37;99698.84;21065093;28;20044;-70
2022/06/23 13:43:33;;;;;;;11.27;2.85;;;;;;;29.38;52.49;99683.00;21064730;28;20464;-69
2022/06/23 13:53:44;;;;;;;10.57;2.80;;;;;;;29.83;50.71;99666.47;21063545;28;20329;-70
2022/06/23 14:04:04;;;;;;;12.30;2.78;;;;;;;29.95;47.47;99656.22;21062513;28;20048;-71
2022/06/23 14:14:14;;;;;;;10.48;2.45;;;;;;;30.02;47.23;99635.63;21059196;28;20048;-68
2022/06/23 14:24:26;;;;;;;9.93;2.60;;;;;;;30.26;44.63;99629.41;21059629;28;20472;-67
2022/06/23 14:34:39;;;;;;;13.63;3.20;;;;;;;30.15;44.69;99613.56;21060013;28;20039;-68
2022/06/23 14:45:00;;;;;;;11.82;3.17;;;;;;;30.21;44.80;99601.22;21057924;28;20134;-69
2022/06/23 14:55:29;;;;;;;12.70;2.88;;;;;;;30.53;44.64;99600.34;21045884;28;20541;-70
2022/06/23 15:05:41;;;;;;;12.40;2.63;;;;;;;30.76;42.12;99578.84;21056880;28;20055;-69
2022/06/23 15:16:08;;;;;;;12.27;2.78;;;;;;;31.22;42.09;99569.03;21056175;28;20048;-70
2022/06/23 15:26:24;;;;;;;12.52;3.17;;;;;;;31.12;41.17;99561.13;21055683;28;20050;-68
2022/06/23 15:36:44;;;;;;;9.93;3.13;;;;;;;31.36;39.78;99549.34;21053578;28;20096;-69
2022/06/23 15:46:54;;;;;;;12.15;2.97;;;;;;;31.15;40.21;99533.75;21056243;28;20059;-70
2022/06/23 15:57:10;;;;;;;10.13;3.05;;;;;;;30.86;40.22;99536.25;21053755;28;20048;-69
2022/06/23 16:07:19;;;;;;;9.43;2.75;;;;;;;30.38;41.36;99529.97;21051359;28;20099;-72
2022/06/23 16:17:24;;;;;;;13.32;2.72;;;;;;;30.34;41.59;99517.84;21050304;28;20454;-69
2022/06/23 16:27:32;;;;;;;9.10;2.38;;;;;;;30.31;40.49;99512.75;21051504;28;20052;-69
2022/06/23 16:37:45;;;;;;;8.35;2.33;;;;;;;30.39;40.41;99499.25;21050370;28;20051;-69
2022/06/23 16:47:57;;;;;;;9.20;2.25;;;;;;;30.39;40.13;99489.28;21053787;28;20132;-69
2022/06/23 16:58:09;;;;;;;9.50;2.47;;;;;;;30.43;40.09;99488.94;21068524;28;20048;-69
2022/06/23 17:08:23;;;;;;;8.60;2.33;;;;;;;30.38;40.81;99479.50;21057360;28;20040;-69
2022/06/23 17:18:46;;;;;;;8.82;2.13;;;;;;;30.53;40.36;99479.63;21066476;28;20048;-69
2022/06/23 17:28:58;;;;;;;9.85;2.80;;;;;;;30.19;41.58;99476.34;21064619;28;20500;-72
2022/06/23 17:49:39;;;;;;;12.85;2.70;;;;;;;29.81;46.78;99481.44;21063434;28;20656;-76
2022/06/23 17:59:53;;;;;;;10.18;2.67;;;;;;;29.47;48.36;99465.41;21059621;28;20040;-74
2022/06/23 18:10:01;;;;;;;9.85;2.65;;;;;;;29.36;49.27;99459.31;21057923;28;20535;-71
2022/06/23 18:20:13;;;;;;;16.52;3.05;;;;;;;29.15;50.55;99477.84;21061218;28;20448;-74
2022/06/23 18:30:19;;;;;;;10.27;2.95;;;;;;;28.93;52.22;99467.66;21059232;28;20664;-71
2022/06/23 18:40:33;;;;;;;11.52;3.10;;;;;;;28.57;54.09;99467.88;21058990;28;20044;-70
2022/06/23 18:50:43;;;;;;;10.70;3.60;;;;;;;28.34;56.11;99473.84;21058623;28;20055;-73
2022/06/23 19:00:57;;;;;;;14.23;5.07;;;;;;;28.13;58.72;99465.28;21057047;28;20295;-72
2022/06/23 19:11:15;;;;;;;13.07;4.55;;;;;;;27.79;61.02;99458.00;21053208;28;20078;-72
2022/06/23 19:21:28;;;;;;;11.75;3.40;;;;;;;27.14;69.01;99472.72;21055739;28;20416;-71
2022/06/23 19:31:48;;;;;;;9.10;3.08;;;;;;;26.82;70.85;99469.47;21054565;28;20412;-71
2022/06/23 19:42:00;;;;;;;15.98;4.82;;;;;;;26.53;71.49;99490.28;21054115;28;20044;-71
2022/06/23 19:52:01;;;;;;;18.27;3.78;;;;;;;26.36;74.53;99499.94;21053499;28;20129;-71
2022/06/23 20:02:12;;;;;;;10.57;3.70;;;;;;;26.23;78.17;99515.50;21052696;28;20094;-68
2022/06/23 20:12:41;;;;;;;11.20;4.28;;;;;;;25.94;78.65;99526.31;21049089;28;20073;-68
2022/06/23 20:23:08;;;;;;;10.23;3.38;;;;;;;25.97;78.73;99534.09;21050880;28;20040;-72
2022/06/23 20:33:19;;;;;;;20.73;2.90;;;;;;;25.52;70.23;99617.72;21050978;28;20519;-72
2022/06/23 20:43:49;;;;;;;17.52;2.13;;;;;;;24.82;61.65;99678.38;21050906;28;20048;-71
2022/06/23 20:54:00;;;;;;;12.82;2.20;;;;;;;24.12;62.53;99737.81;21025367;28;20044;-72
2022/06/23 21:04:29;;;;;;;7.20;1.30;;;;;;;23.40;75.16;99773.88;21056253;28;20040;-72
2022/06/23 21:14:49;;;;;;;7.30;1.40;;;;;;;22.83;84.91;99801.41;21013847;28;20049;-73
2022/06/23 21:25:17;;;;;;;7.45;1.48;;;;;;;22.15;93.65;99794.94;20973534;28;20052;-72
2022/06/23 21:35:33;;;;;;;8.07;1.63;;;;;;;21.24;100.00;99802.28;20977214;28;20048;-73
2022/06/23 21:45:49;;;;;;;4.88;1.20;;;;;;;21.03;100.00;99815.25;20984197;28;20067;-74
2022/06/23 21:56:27;;;;;;;6.40;1.73;;;;;;;20.68;100.00;99799.03;20981004;28;20048;-72
2022/06/23 22:06:41;;;;;;;11.20;1.98;;;;;;;20.03;100.00;99778.47;21029245;28;20051;-71
2022/06/23 22:16:47;;;;;;;10.60;2.10;;;;;;;19.54;100.00;99786.00;21078424;28;20130;-71
2022/06/23 22:26:56;;;;;;;8.82;2.10;;;;;;;19.68;100.00;99808.13;21077083;28;20101;-71
2022/06/23 22:37:21;;;;;;;7.78;1.80;;;;;;;19.66;100.00;99787.94;21075372;28;20063;-72
2022/06/23 22:47:32;;;;;;;9.35;2.65;;;;;;;19.25;100.00;99785.16;21075033;28;20058;-73
2022/06/23 22:57:34;;;;;;;8.07;2.40;;;;;;;19.41;100.00;99820.44;21075596;28;20052;-74
2022/06/23 23:07:42;;;;;;;7.80;2.30;;;;;;;19.65;100.00;99815.44;21074859;28;20055;-74
2022/06/23 23:18:04;;;;;;;8.90;2.40;;;;;;;19.56;100.00;99840.72;21072830;28;20047;-73
2022/06/23 23:28:24;;;;;;;7.07;2.50;;;;;;;19.50;100.00;99822.53;21071467;28;20097;-72
2022/06/23 23:38:38;;;;;;;9.02;2.65;;;;;;;19.43;100.00;99778.72;21070422;28;20047;-74
2022/06/23 23:48:45;;;;;;;10.95;2.70;;;;;;;19.37;100.00;99755.19;21071895;28;20047;-73
2022/06/23 23:58:46;;;;;;;10.32;3.17;;;;;;;19.30;100.00;99753.84;21069391;28;20101;-73
